Wetterdaten: Woche 20.06.11 - 26.06.11 (KW25)
Datum Zeit Temp. A. Feuchte A. Luftdruck Regen Wind Richtung Taupunkt Windchill
20.06.2011 00:00 10,0 C 88 % 1018,6 hPa 0,0 mm 0,6 km/h NW 8,1 C 10,0 C
20.06.2011 01:00 9,4 C 88 % 1018,7 hPa 0,0 mm 0,5 km/h S-SW 7,5 C 9,4 C
20.06.2011 02:00 9,2 C 88 % 1018,7 hPa 0,0 mm 1,2 km/h S-SW 7,3 C 9,2 C
20.06.2011 03:00 8,6 C 89 % 1018,7 hPa 0,0 mm 0,4 km/h N-NO 6,8 C 8,6 C
20.06.2011 04:00 7,7 C 88 % 1018,9 hPa 0,0 mm 0,4 km/h W-SW 5,8 C 7,7 C
20.06.2011 05:00 7,1 C 89 % 1019,3 hPa 0,0 mm 0,4 km/h NO 5,4 C 7,1 C
20.06.2011 06:00 8,3 C 89 % 1019,6 hPa 0,0 mm 0,7 km/h NO 6,6 C 8,3 C
20.06.2011 07:00 11,5 C 89 % 1019,8 hPa 0,0 mm 1,3 km/h NO 9,7 C 11,5 C
20.06.2011 08:00 15,3 C 78 % 1019,9 hPa 0,0 mm 2,3 km/h O-SO 11,5 C 15,3 C
20.06.2011 09:00 17,7 C 61 % 1019,9 hPa 0,0 mm 4,5 km/h SW 9,9 C 17,5 C
20.06.2011 10:00 18,8 C 53 % 1020,0 hPa 0,0 mm 3,8 km/h S 9,0 C 18,5 C
20.06.2011 11:00 19,7 C 50 % 1019,9 hPa 0,0 mm 7,6 km/h W-SW 8,9 C 19,0 C
20.06.2011 12:00 20,5 C 46 % 1019,6 hPa 0,0 mm 5,5 km/h NW 8,4 C 20,2 C
20.06.2011 13:00 20,0 C 51 % 1019,2 hPa 0,0 mm 3,9 km/h S-SW 9,4 C 19,9 C
20.06.2011 14:00 20,4 C 48 % 1018,9 hPa 0,0 mm 2,0 km/h N-NO 9,0 C 20,4 C
20.06.2011 15:00 20,9 C 48 % 1018,6 hPa 0,0 mm 1,4 km/h N 9,3 C 20,9 C
20.06.2011 16:00 20,6 C 52 % 1018,4 hPa 0,0 mm 1,4 km/h N-NO 10,3 C 20,5 C
20.06.2011 17:00 19,9 C 60 % 1018,3 hPa 0,0 mm 0,7 km/h N-NO 11,8 C 19,9 C
20.06.2011 18:00 20,1 C 63 % 1018,0 hPa 0,0 mm 0,2 km/h N-NO 12,9 C 20,1 C
20.06.2011 19:00 19,9 C 62 % 1018,0 hPa 0,0 mm 0,0 km/h N 12,3 C 19,9 C
20.06.2011 20:00 18,2 C 72 % 1018,0 hPa 0,0 mm 0,2 km/h N-NW 13,0 C 18,2 C
20.06.2011 21:00 16,7 C 77 % 1018,3 hPa 0,0 mm 0,6 km/h W-SW 12,7 C 16,7 C
20.06.2011 22:00 15,8 C 80 % 1018,6 hPa 0,0 mm 0,5 km/h S-SW 12,2 C 15,8 C
20.06.2011 23:00 15,2 C 81 % 1018,9 hPa 0,0 mm 0,3 km/h W 11,9 C 15,2 C
21.06.2011 00:00 14,6 C 82 % 1019,3 hPa 0,0 mm 0,6 km/h N-NO 11,4 C 14,6 C
21.06.2011 01:00 14,4 C 79 % 1019,4 hPa 0,0 mm 0,5 km/h S 10,8 C 14,4 C
21.06.2011 02:00 13,3 C 84 % 1019,3 hPa 0,0 mm 0,8 km/h NO 10,6 C 13,3 C
21.06.2011 03:00 12,7 C 86 % 1019,3 hPa 0,0 mm 0,3 km/h O-SO 10,4 C 12,7 C
21.06.2011 04:00 12,4 C 87 % 1019,3 hPa 0,0 mm 0,6 km/h NO 10,3 C 12,4 C
21.06.2011 05:00 12,3 C 87 % 1019,5 hPa 0,0 mm 0,4 km/h O-SO 10,3 C 12,3 C
21.06.2011 06:00 12,8 C 88 % 1019,9 hPa 0,0 mm 1,0 km/h N-NO 10,9 C 12,8 C
21.06.2011 07:00 14,9 C 85 % 1020,0 hPa 0,0 mm 2,3 km/h NO 12,4 C 14,9 C
21.06.2011 08:00 17,5 C 76 % 1020,1 hPa 0,0 mm 1,6 km/h O-NO 13,2 C 17,5 C
21.06.2011 09:00 19,6 C 70 % 1020,1 hPa 0,0 mm 4,2 km/h S-SW 13,9 C 19,4 C
21.06.2011 10:00 22,1 C 61 % 1020,3 hPa 0,0 mm 2,8 km/h SW 14,3 C 22,1 C
21.06.2011 11:00 23,8 C 56 % 1020,3 hPa 0,0 mm 6,7 km/h S-SW 14,4 C 23,5 C
21.06.2011 12:00 25,2 C 52 % 1020,1 hPa 0,0 mm 6,1 km/h S-SW 14,7 C 24,8 C
21.06.2011 13:00 25,9 C 51 % 1019,8 hPa 0,0 mm 7,3 km/h S 15,0 C 25,5 C
21.06.2011 14:00 26,6 C 49 % 1019,3 hPa 0,0 mm 9,0 km/h S-SO 14,9 C 26,0 C
21.06.2011 15:00 27,1 C 47 % 1019,0 hPa 0,0 mm 8,8 km/h S-SW 14,7 C 26,6 C
21.06.2011 16:00 26,5 C 47 % 1018,8 hPa 0,0 mm 7,2 km/h S 14,3 C 26,2 C
21.06.2011 17:00 26,4 C 52 % 1018,6 hPa 0,0 mm 4,9 km/h S-SW 15,7 C 26,2 C
21.06.2011 18:00 27,1 C 52 % 1018,6 hPa 0,0 mm 2,1 km/h O-SO 16,3 C 27,0 C
21.06.2011 19:00 25,7 C 59 % 1019,2 hPa 0,0 mm 0,4 km/h W-SW 16,9 C 25,7 C
21.06.2011 20:00 22,9 C 68 % 1019,2 hPa 0,0 mm 0,8 km/h NO 16,7 C 22,9 C
21.06.2011 21:00 20,6 C 72 % 1019,4 hPa 0,0 mm 0,8 km/h N-NO 15,4 C 20,6 C
21.06.2011 22:00 18,9 C 78 % 1019,7 hPa 0,0 mm 0,6 km/h N-NO 14,8 C 18,9 C
21.06.2011 23:00 17,6 C 82 % 1019,8 hPa 0,0 mm 0,0 km/h N 14,4 C 17,6 C
22.06.2011 00:00 16,6 C 84 % 1020,0 hPa 0,0 mm 0,0 km/h N 13,9 C 16,6 C
22.06.2011 01:00 15,8 C 86 % 1019,8 hPa 0,0 mm 0,2 km/h N-NO 13,4 C 15,8 C
22.06.2011 02:00 15,2 C 87 % 1019,8 hPa 0,0 mm 0,4 km/h S-SW 13,0 C 15,2 C
22.06.2011 03:00 14,8 C 87 % 1019,7 hPa 0,0 mm 0,0 km/h N 12,7 C 14,8 C
22.06.2011 04:00 14,3 C 88 % 1019,5 hPa 0,0 mm 0,0 km/h N 12,2 C 14,3 C
22.06.2011 05:00 14,1 C 88 % 1019,5 hPa 0,0 mm 0,0 km/h N 12,2 C 14,1 C
22.06.2011 06:00 15,3 C 89 % 1019,6 hPa 0,0 mm 0,0 km/h N 13,5 C 15,3 C
22.06.2011 07:00 18,4 C 84 % 1019,8 hPa 0,0 mm 0,0 km/h N 15,6 C 18,4 C
22.06.2011 08:00 21,7 C 76 % 1019,9 hPa 0,0 mm 0,3 km/h NO 17,2 C 21,7 C
22.06.2011 09:00 24,5 C 65 % 1019,6 hPa 0,0 mm 1,4 km/h N-NO 17,5 C 24,5 C
22.06.2011 10:00 26,2 C 58 % 1019,4 hPa 0,0 mm 3,6 km/h NO 17,3 C 26,2 C
22.06.2011 11:00 27,5 C 53 % 1018,8 hPa 0,0 mm 2,5 km/h NO 17,0 C 27,5 C
22.06.2011 12:00 28,6 C 51 % 1018,4 hPa 0,0 mm 4,3 km/h O-SO 17,4 C 28,5 C
22.06.2011 13:00 29,1 C 51 % 1017,9 hPa 0,0 mm 4,2 km/h O-SO 18,0 C 29,1 C
22.06.2011 14:00 29,2 C 52 % 1017,2 hPa 0,0 mm 5,3 km/h S 18,4 C 29,1 C
22.06.2011 15:00 28,9 C 52 % 1016,6 hPa 0,0 mm 5,9 km/h S 18,0 C 28,7 C
22.06.2011 16:00 28,5 C 55 % 1015,8 hPa 0,0 mm 8,8 km/h S 18,5 C 28,2 C
22.06.2011 17:00 28,6 C 54 % 1015,0 hPa 0,0 mm 8,1 km/h S 18,2 C 28,3 C
22.06.2011 18:00 28,2 C 54 % 1014,4 hPa 0,0 mm 10,2 km/h S-SW 18,1 C 27,7 C
22.06.2011 19:00 26,7 C 58 % 1014,1 hPa 0,0 mm 5,2 km/h S 17,6 C 26,6 C
22.06.2011 20:00 25,0 C 61 % 1014,1 hPa 0,0 mm 3,7 km/h S-SW 16,9 C 25,0 C
22.06.2011 21:00 23,2 C 65 % 1014,5 hPa 0,0 mm 2,8 km/h O-SO 16,2 C 23,1 C
22.06.2011 22:00 21,5 C 70 % 1014,9 hPa 0,0 mm 0,5 km/h SW 15,7 C 21,5 C
22.06.2011 23:00 20,1 C 74 % 1015,4 hPa 0,0 mm 1,1 km/h N 15,2 C 20,1 C
23.06.2011 00:00 20,9 C 66 % 1016,5 hPa 0,0 mm 9,2 km/h NW 14,1 C 19,9 C
23.06.2011 01:00 22,3 C 51 % 1016,4 hPa 0,0 mm 12,7 km/h NW 11,5 C 20,7 C
23.06.2011 02:00 21,9 C 51 % 1016,7 hPa 0,0 mm 3,3 km/h S-SW 11,3 C 21,9 C
23.06.2011 03:00 21,3 C 53 % 1016,6 hPa 0,0 mm 4,6 km/h W-NW 11,2 C 21,2 C
23.06.2011 04:00 20,3 C 57 % 1017,0 hPa 0,0 mm 2,9 km/h W-NW 11,4 C 20,2 C
23.06.2011 05:00 19,4 C 63 % 1017,8 hPa 0,0 mm 0,8 km/h W-SW 12,0 C 19,4 C
23.06.2011 06:00 18,9 C 67 % 1018,5 hPa 0,0 mm 1,0 km/h NO 12,5 C 18,9 C
23.06.2011 07:00 18,6 C 74 % 1019,5 hPa 0,1 mm 0,6 km/h W-SW 13,9 C 18,6 C
23.06.2011 08:00 19,3 C 76 % 1019,4 hPa 0,1 mm 0,5 km/h O-SO 15,0 C 19,3 C
23.06.2011 09:00 21,2 C 69 % 1019,8 hPa 0,0 mm 2,6 km/h O-SO 15,2 C 21,2 C
23.06.2011 10:00 20,9 C 69 % 1019,7 hPa 0,0 mm 1,4 km/h O-NO 15,1 C 20,9 C
23.06.2011 11:00 20,5 C 74 % 1020,0 hPa 0,2 mm 0,9 km/h O-SO 15,7 C 20,5 C
23.06.2011 12:00 21,6 C 73 % 1019,4 hPa 0,0 mm 2,6 km/h O-SO 16,5 C 21,6 C
23.06.2011 13:00 22,7 C 67 % 1018,8 hPa 0,0 mm 2,3 km/h O-SO 16,3 C 22,7 C
23.06.2011 14:00 22,6 C 68 % 1018,0 hPa 0,0 mm 1,4 km/h S 16,3 C 22,6 C
23.06.2011 15:00 23,5 C 65 % 1017,0 hPa 0,0 mm 3,1 km/h O-SO 16,5 C 23,4 C
23.06.2011 16:00 24,4 C 63 % 1016,2 hPa 0,0 mm 2,9 km/h O-SO 16,8 C 24,4 C
23.06.2011 17:00 23,4 C 65 % 1015,2 hPa 0,0 mm 1,8 km/h O-SO 16,4 C 23,4 C
23.06.2011 18:00 23,7 C 64 % 1014,5 hPa 0,0 mm 2,7 km/h S-SW 16,4 C 23,7 C
23.06.2011 19:00 20,7 C 69 % 1015,4 hPa 0,0 mm 10,6 km/h NO 14,8 C 18,9 C
23.06.2011 20:00 15,9 C 82 % 1016,8 hPa 17,5 mm 5,3 km/h N 12,8 C 15,7 C
23.06.2011 21:00 15,3 C 87 % 1017,2 hPa 4,7 mm 3,5 km/h NO 13,1 C 15,3 C
23.06.2011 22:00 15,5 C 87 % 1017,8 hPa 1,1 mm 1,0 km/h NO 13,4 C 15,5 C
23.06.2011 23:00 15,6 C 84 % 1018,0 hPa 0,1 mm 6,0 km/h N 12,8 C 15,1 C
24.06.2011 00:00 15,0 C 80 % 1018,2 hPa 0,2 mm 2,3 km/h S-SW 11,6 C 15,0 C
24.06.2011 01:00 14,5 C 80 % 1018,5 hPa 0,2 mm 2,7 km/h SW 11,1 C 14,5 C
24.06.2011 02:00 14,0 C 84 % 1019,0 hPa 0,2 mm 0,0 km/h N 11,3 C 14,0 C
24.06.2011 03:00 13,7 C 86 % 1019,0 hPa 0,1 mm 1,3 km/h SW 11,3 C 13,7 C
24.06.2011 04:00 13,1 C 87 % 1019,2 hPa 0,0 mm 2,6 km/h SW 11,0 C 13,1 C
24.06.2011 05:00 13,2 C 86 % 1019,4 hPa 0,0 mm 2,1 km/h S-SW 10,9 C 13,2 C
24.06.2011 06:00 13,8 C 87 % 1019,5 hPa 0,0 mm 2,3 km/h N-NO 11,6 C 13,8 C
24.06.2011 07:00 14,5 C 86 % 1019,9 hPa 0,0 mm 1,1 km/h N-NO 12,2 C 14,5 C
24.06.2011 08:00 15,6 C 83 % 1020,4 hPa 0,0 mm 1,9 km/h N-NO 12,8 C 15,6 C
24.06.2011 09:00 17,0 C 80 % 1020,5 hPa 0,0 mm 1,9 km/h N-NO 13,5 C 17,0 C
24.06.2011 10:00 18,1 C 74 % 1020,5 hPa 0,0 mm 3,6 km/h NO 13,3 C 18,0 C
24.06.2011 11:00 19,4 C 67 % 1020,5 hPa 0,0 mm 3,1 km/h NO 13,1 C 19,4 C
24.06.2011 12:00 19,4 C 61 % 1020,8 hPa 0,0 mm 4,8 km/h N-NO 11,7 C 19,1 C
24.06.2011 13:00 18,5 C 59 % 1020,7 hPa 0,0 mm 6,3 km/h NW 10,2 C 18,2 C
24.06.2011 14:00 17,8 C 64 % 1020,5 hPa 0,0 mm 1,5 km/h N 10,9 C 17,8 C
24.06.2011 15:00 18,1 C 67 % 1020,3 hPa 0,0 mm 2,0 km/h S-SW 11,9 C 18,1 C
24.06.2011 16:00 17,7 C 68 % 1020,4 hPa 0,0 mm 1,7 km/h S-SW 11,8 C 17,7 C
24.06.2011 17:00 17,1 C 74 % 1020,1 hPa 0,0 mm 3,4 km/h SW 12,5 C 17,1 C
24.06.2011 18:00 16,5 C 80 % 1019,9 hPa 0,0 mm 2,8 km/h S-SW 12,9 C 16,4 C
24.06.2011 19:00 16,0 C 81 % 1020,0 hPa 0,0 mm 4,2 km/h W-SW 12,8 C 15,8 C
24.06.2011 20:00 16,0 C 81 % 1020,6 hPa 0,0 mm 1,3 km/h SW 12,7 C 16,0 C
24.06.2011 21:00 15,0 C 79 % 1021,3 hPa 0,0 mm 1,4 km/h NW 11,4 C 15,0 C
24.06.2011 22:00 13,9 C 82 % 1021,8 hPa 0,0 mm 0,7 km/h NW 11,0 C 13,9 C
24.06.2011 23:00 13,2 C 84 % 1022,1 hPa 0,0 mm 0,5 km/h W-SW 10,5 C 13,2 C
25.06.2011 00:00 12,2 C 83 % 1022,6 hPa 0,0 mm 1,1 km/h W 9,4 C 12,2 C
25.06.2011 01:00 12,6 C 72 % 1023,5 hPa 0,0 mm 8,1 km/h NW 7,8 C 11,2 C
25.06.2011 02:00 12,8 C 67 % 1023,3 hPa 0,0 mm 4,8 km/h W 6,8 C 12,3 C
25.06.2011 03:00 11,3 C 73 % 1023,2 hPa 0,0 mm 0,8 km/h W-SW 6,6 C 11,3 C
25.06.2011 04:00 10,2 C 78 % 1023,3 hPa 0,0 mm 0,7 km/h NO 6,5 C 10,2 C
25.06.2011 05:00 9,4 C 81 % 1023,5 hPa 0,0 mm 0,5 km/h NO 6,2 C 9,4 C
25.06.2011 06:00 10,7 C 81 % 1023,7 hPa 0,0 mm 1,7 km/h N-NO 7,6 C 10,7 C
25.06.2011 07:00 14,2 C 71 % 1023,8 hPa 0,0 mm 2,5 km/h N-NO 8,9 C 14,2 C
25.06.2011 08:00 16,6 C 55 % 1024,0 hPa 0,0 mm 11,3 km/h N-NO 7,4 C 14,5 C
25.06.2011 09:00 17,9 C 49 % 1024,4 hPa 0,0 mm 14,0 km/h N-NW 7,1 C 15,2 C
25.06.2011 10:00 18,0 C 48 % 1024,8 hPa 0,0 mm 11,8 km/h NW 6,9 C 15,9 C
25.06.2011 11:00 18,4 C 48 % 1025,0 hPa 0,0 mm 13,0 km/h N-NO 7,2 C 16,0 C
25.06.2011 12:00 18,3 C 48 % 1024,7 hPa 0,0 mm 11,6 km/h NW 7,1 C 16,4 C
25.06.2011 13:00 18,2 C 46 % 1024,7 hPa 0,0 mm 13,7 km/h NW 6,4 C 15,8 C
25.06.2011 14:00 18,5 C 44 % 1024,4 hPa 0,0 mm 11,8 km/h N 5,9 C 16,5 C
25.06.2011 15:00 19,1 C 42 % 1024,0 hPa 0,0 mm 11,2 km/h N 5,8 C 17,3 C
25.06.2011 16:00 19,5 C 43 % 1023,9 hPa 0,0 mm 7,3 km/h NW 6,7 C 18,8 C
25.06.2011 17:00 19,8 C 41 % 1023,9 hPa 0,0 mm 8,7 km/h NW 6,1 C 18,8 C
25.06.2011 18:00 18,7 C 44 % 1024,0 hPa 0,0 mm 5,7 km/h NW 6,0 C 18,2 C
25.06.2011 19:00 17,4 C 46 % 1024,5 hPa 0,0 mm 8,2 km/h NW 5,8 C 16,4 C
25.06.2011 20:00 16,3 C 51 % 1024,8 hPa 0,0 mm 4,3 km/h W-NW 6,1 C 16,1 C
25.06.2011 21:00 15,7 C 53 % 1025,4 hPa 0,0 mm 7,4 km/h NW 6,1 C 14,9 C
25.06.2011 22:00 15,6 C 53 % 1026,0 hPa 0,0 mm 9,9 km/h NW 5,9 C 13,9 C
25.06.2011 23:00 15,1 C 54 % 1026,0 hPa 0,0 mm 10,6 km/h NW 5,9 C 13,1 C
26.06.2011 00:00 14,8 C 57 % 1025,9 hPa 0,0 mm 8,5 km/h W-NW 6,2 C 13,4 C
26.06.2011 01:00 14,2 C 60 % 1025,8 hPa 0,0 mm 3,2 km/h W-SW 6,6 C 14,2 C
26.06.2011 02:00 13,9 C 62 % 1025,4 hPa 0,0 mm 3,5 km/h W-NW 6,8 C 13,9 C
26.06.2011 03:00 13,7 C 65 % 1025,1 hPa 0,0 mm 4,3 km/h W-NW 7,3 C 13,7 C
26.06.2011 04:00 13,3 C 68 % 1024,8 hPa 0,0 mm 2,2 km/h W-NW 7,6 C 13,3 C
26.06.2011 05:00 12,9 C 73 % 1024,8 hPa 0,0 mm 0,7 km/h O-SO 8,2 C 12,9 C
26.06.2011 06:00 13,1 C 75 % 1024,8 hPa 0,0 mm 0,0 km/h N 8,8 C 13,1 C
26.06.2011 07:00 13,6 C 77 % 1024,8 hPa 0,0 mm 0,4 km/h O-SO 9,5 C 13,6 C
26.06.2011 08:00 14,6 C 72 % 1024,8 hPa 0,0 mm 0,9 km/h W-SW 9,5 C 14,6 C
26.06.2011 09:00 15,8 C 70 % 1024,7 hPa 0,0 mm 3,1 km/h S-SW 10,3 C 15,7 C
26.06.2011 10:00 16,1 C 67 % 1024,7 hPa 0,0 mm 4,9 km/h S-SW 9,9 C 16,0 C
26.06.2011 11:00 15,7 C 69 % 1024,9 hPa 0,0 mm 5,0 km/h S-SW 10,0 C 15,3 C
26.06.2011 12:00 16,7 C 68 % 1024,8 hPa 0,0 mm 3,7 km/h W-SW 10,8 C 16,6 C
26.06.2011 13:00 17,9 C 67 % 1024,3 hPa 0,0 mm 4,9 km/h W-SW 11,7 C 17,7 C
26.06.2011 14:00 19,3 C 66 % 1023,8 hPa 0,0 mm 3,1 km/h SW 12,7 C 19,2 C
26.06.2011 15:00 20,0 C 63 % 1023,5 hPa 0,0 mm 6,3 km/h SW 12,9 C 19,4 C
26.06.2011 16:00 20,1 C 64 % 1023,6 hPa 0,0 mm 1,9 km/h W 13,1 C 20,1 C
26.06.2011 17:00 20,2 C 60 % 1023,4 hPa 0,0 mm 1,5 km/h NW 12,3 C 20,2 C
26.06.2011 18:00 20,3 C 61 % 1023,5 hPa 0,0 mm 1,2 km/h W-SW 12,4 C 20,3 C
26.06.2011 19:00 19,8 C 68 % 1023,8 hPa 0,0 mm 0,2 km/h O-NO 13,6 C 19,8 C
26.06.2011 20:00 18,1 C 74 % 1024,2 hPa 0,0 mm 0,0 km/h N 13,5 C 18,1 C
26.06.2011 21:00 16,3 C 80 % 1024,6 hPa 0,0 mm 0,5 km/h W-SW 12,9 C 16,3 C
26.06.2011 22:00 15,1 C 83 % 1024,8 hPa 0,0 mm 0,2 km/h W-SW 12,2 C 15,1 C
26.06.2011 23:00 14,4 C 85 % 1024,7 hPa 0,0 mm 0,1 km/h W-NW 11,9 C 14,4 C
Min-Datum _ 20.06.11 25.06.11 22.06.11 - 20.06.11 - 25.06.11 20.06.11
_ Min-Zeit 05:38 15:18 18:58 - 00:03 - 15:18 05:38
Minimum _ 7,0 C 39 % 1013,9 hPa - 0,0 km/h - 5,1 C 7,0 C
Max-Datum _ 22.06.11 20.06.11 25.06.11 23.06.11 25.06.11 - 22.06.11 22.06.11
_ Max-Zeit 14:48 06:53 23:48 20:18 13:13 - 14:08 14:48
Maximum _ 29,4 C 90 % 1026,2 hPa 17,5 mm 28,4 km/h
NW
- 19,2 C 29,4 C
Durchschnitt _ 18,1 C 68 % 1020,4 hPa #24,5 mm 3,3 km/h NW 11,8 C 17,8 C